sensor_id;sensor_type;location;lat;lon;timestamp;temperature;humidity
28171;DHT22;15458;53.346;-1.688;2024-02-21T00:00:53;7.90;99.90
28171;DHT22;15458;53.346;-1.688;2024-02-21T00:03:19;7.80;99.90
28171;DHT22;15458;53.346;-1.688;2024-02-21T00:05:45;7.80;99.90
28171;DHT22;15458;53.346;-1.688;2024-02-21T00:08:10;7.80;99.90
28171;DHT22;15458;53.346;-1.688;2024-02-21T00:10:36;7.80;99.90
28171;DHT22;15458;53.346;-1.688;2024-02-21T00:13:02;7.80;99.90
28171;DHT22;15458;53.346;-1.688;2024-02-21T00:15:28;7.80;99.90
28171;DHT22;15458;53.346;-1.688;2024-02-21T00:17:54;7.70;99.90
28171;DHT22;15458;53.346;-1.688;2024-02-21T00:20:20;7.70;99.90
28171;DHT22;15458;53.346;-1.688;2024-02-21T00:22:46;7.70;99.90
28171;DHT22;15458;53.346;-1.688;2024-02-21T00:25:12;7.70;99.90
28171;DHT22;15458;53.346;-1.688;2024-02-21T00:27:38;7.70;99.90
28171;DHT22;15458;53.346;-1.688;2024-02-21T00:30:05;7.70;99.90
28171;DHT22;15458;53.346;-1.688;2024-02-21T00:32:32;7.70;99.90
28171;DHT22;15458;53.346;-1.688;2024-02-21T00:35:00;7.70;99.90
28171;DHT22;15458;53.346;-1.688;2024-02-21T00:37:26;7.80;99.90
28171;DHT22;15458;53.346;-1.688;2024-02-21T00:39:54;7.80;99.90
28171;DHT22;15458;53.346;-1.688;2024-02-21T00:42:20;7.90;99.90
28171;DHT22;15458;53.346;-1.688;2024-02-21T00:44:46;7.90;99.90
28171;DHT22;15458;53.346;-1.688;2024-02-21T00:47:12;7.90;99.90
28171;DHT22;15458;53.346;-1.688;2024-02-21T00:49:38;7.90;99.90
28171;DHT22;15458;53.346;-1.688;2024-02-21T00:52:04;7.90;99.90
28171;DHT22;15458;53.346;-1.688;2024-02-21T00:54:29;7.90;99.90
28171;DHT22;15458;53.346;-1.688;2024-02-21T00:56:55;7.80;99.90
28171;DHT22;15458;53.346;-1.688;2024-02-21T00:59:21;7.90;99.90
28171;DHT22;15458;53.346;-1.688;2024-02-21T01:01:47;7.80;99.90
28171;DHT22;15458;53.346;-1.688;2024-02-21T01:04:12;7.70;99.90
28171;DHT22;15458;53.346;-1.688;2024-02-21T01:06:38;7.70;99.90
28171;DHT22;15458;53.346;-1.688;2024-02-21T01:09:04;7.70;99.90
28171;DHT22;15458;53.346;-1.688;2024-02-21T01:11:30;7.70;99.90
28171;DHT22;15458;53.346;-1.688;2024-02-21T01:13:56;7.70;99.90
28171;DHT22;15458;53.346;-1.688;2024-02-21T01:16:21;7.70;99.90
28171;DHT22;15458;53.346;-1.688;2024-02-21T01:18:47;7.80;99.90
28171;DHT22;15458;53.346;-1.688;2024-02-21T01:21:13;7.80;99.90
28171;DHT22;15458;53.346;-1.688;2024-02-21T01:23:39;7.80;99.90
28171;DHT22;15458;53.346;-1.688;2024-02-21T01:26:05;7.80;99.90
28171;DHT22;15458;53.346;-1.688;2024-02-21T01:28:34;7.90;99.90
28171;DHT22;15458;53.346;-1.688;2024-02-21T01:31:00;7.90;99.90
28171;DHT22;15458;53.346;-1.688;2024-02-21T01:33:26;7.90;99.90
28171;DHT22;15458;53.346;-1.688;2024-02-21T01:35:52;7.90;99.90
28171;DHT22;15458;53.346;-1.688;2024-02-21T01:38:18;7.90;99.90
28171;DHT22;15458;53.346;-1.688;2024-02-21T01:40:43;7.90;99.90
28171;DHT22;15458;53.346;-1.688;2024-02-21T01:43:17;7.90;99.90
28171;DHT22;15458;53.346;-1.688;2024-02-21T01:45:57;8.00;99.90
28171;DHT22;15458;53.346;-1.688;2024-02-21T01:48:23;7.90;99.90
28171;DHT22;15458;53.346;-1.688;2024-02-21T01:50:50;8.00;99.90
28171;DHT22;15458;53.346;-1.688;2024-02-21T01:53:25;8.00;99.90
28171;DHT22;15458;53.346;-1.688;2024-02-21T01:55:53;8.00;99.90
28171;DHT22;15458;53.346;-1.688;2024-02-21T01:58:19;8.00;99.90
28171;DHT22;15458;53.346;-1.688;2024-02-21T02:00:46;8.00;99.90
28171;DHT22;15458;53.346;-1.688;2024-02-21T02:03:13;8.00;99.90
28171;DHT22;15458;53.346;-1.688;2024-02-21T02:05:49;8.00;99.90
28171;DHT22;15458;53.346;-1.688;2024-02-21T02:08:17;8.00;99.90
28171;DHT22;15458;53.346;-1.688;2024-02-21T02:10:43;8.00;99.90
28171;DHT22;15458;53.346;-1.688;2024-02-21T02:13:09;8.00;99.90
28171;DHT22;15458;53.346;-1.688;2024-02-21T02:18:08;8.10;99.90
28171;DHT22;15458;53.346;-1.688;2024-02-21T02:20:35;8.10;99.90
28171;DHT22;15458;53.346;-1.688;2024-02-21T02:25:35;8.10;99.90
28171;DHT22;15458;53.346;-1.688;2024-02-21T02:28:00;8.10;99.90
28171;DHT22;15458;53.346;-1.688;2024-02-21T02:30:27;8.10;99.90
28171;DHT22;15458;53.346;-1.688;2024-02-21T02:32:55;8.10;99.90
28171;DHT22;15458;53.346;-1.688;2024-02-21T02:35:20;8.10;99.90
28171;DHT22;15458;53.346;-1.688;2024-02-21T02:37:50;8.20;99.90
28171;DHT22;15458;53.346;-1.688;2024-02-21T02:40:19;8.10;99.90
28171;DHT22;15458;53.346;-1.688;2024-02-21T02:42:45;8.20;99.90
28171;DHT22;15458;53.346;-1.688;2024-02-21T02:45:12;8.20;99.90
28171;DHT22;15458;53.346;-1.688;2024-02-21T02:47:39;8.20;99.90
28171;DHT22;15458;53.346;-1.688;2024-02-21T02:50:06;8.20;99.90
28171;DHT22;15458;53.346;-1.688;2024-02-21T02:52:32;8.30;99.90
28171;DHT22;15458;53.346;-1.688;2024-02-21T02:54:58;8.30;99.90
28171;DHT22;15458;53.346;-1.688;2024-02-21T02:57:24;8.20;99.90
28171;DHT22;15458;53.346;-1.688;2024-02-21T02:59:50;8.30;99.90
28171;DHT22;15458;53.346;-1.688;2024-02-21T03:02:18;8.30;99.90
28171;DHT22;15458;53.346;-1.688;2024-02-21T03:04:44;8.30;99.90
28171;DHT22;15458;53.346;-1.688;2024-02-21T03:07:10;8.30;99.90
28171;DHT22;15458;53.346;-1.688;2024-02-21T03:09:39;8.30;99.90
28171;DHT22;15458;53.346;-1.688;2024-02-21T03:12:05;8.30;99.90
28171;DHT22;15458;53.346;-1.688;2024-02-21T03:14:32;8.40;99.90
28171;DHT22;15458;53.346;-1.688;2024-02-21T03:17:00;8.40;99.90
28171;DHT22;15458;53.346;-1.688;2024-02-21T03:19:25;8.30;99.90
28171;DHT22;15458;53.346;-1.688;2024-02-21T03:21:52;8.40;99.90
28171;DHT22;15458;53.346;-1.688;2024-02-21T03:24:21;8.30;99.90
28171;DHT22;15458;53.346;-1.688;2024-02-21T03:26:47;8.40;99.90
28171;DHT22;15458;53.346;-1.688;2024-02-21T03:29:15;8.40;99.90
28171;DHT22;15458;53.346;-1.688;2024-02-21T03:31:42;8.40;99.90
28171;DHT22;15458;53.346;-1.688;2024-02-21T03:34:10;8.40;99.90
28171;DHT22;15458;53.346;-1.688;2024-02-21T03:36:36;8.40;99.90
28171;DHT22;15458;53.346;-1.688;2024-02-21T03:39:02;8.40;99.90
28171;DHT22;15458;53.346;-1.688;2024-02-21T03:41:28;8.40;99.90
28171;DHT22;15458;53.346;-1.688;2024-02-21T03:43:54;8.40;99.90
28171;DHT22;15458;53.346;-1.688;2024-02-21T03:46:20;8.40;99.90
28171;DHT22;15458;53.346;-1.688;2024-02-21T03:48:45;8.40;99.90
28171;DHT22;15458;53.346;-1.688;2024-02-21T03:51:11;8.40;99.90
28171;DHT22;15458;53.346;-1.688;2024-02-21T03:53:37;8.40;99.90
28171;DHT22;15458;53.346;-1.688;2024-02-21T03:56:03;8.40;99.90
28171;DHT22;15458;53.346;-1.688;2024-02-21T03:58:32;8.40;99.90
28171;DHT22;15458;53.346;-1.688;2024-02-21T04:01:02;8.40;99.90
28171;DHT22;15458;53.346;-1.688;2024-02-21T04:03:28;8.40;99.90
28171;DHT22;15458;53.346;-1.688;2024-02-21T04:05:54;8.40;99.90
28171;DHT22;15458;53.346;-1.688;2024-02-21T04:08:21;8.40;99.90
28171;DHT22;15458;53.346;-1.688;2024-02-21T04:10:47;8.40;99.90
28171;DHT22;15458;53.346;-1.688;2024-02-21T04:13:13;8.40;99.90
28171;DHT22;15458;53.346;-1.688;2024-02-21T04:15:38;8.40;99.90
28171;DHT22;15458;53.346;-1.688;2024-02-21T04:18:05;8.40;99.90
28171;DHT22;15458;53.346;-1.688;2024-02-21T04:20:31;8.40;99.90
28171;DHT22;15458;53.346;-1.688;2024-02-21T04:22:58;8.40;99.90
28171;DHT22;15458;53.346;-1.688;2024-02-21T04:25:24;8.40;99.90
28171;DHT22;15458;53.346;-1.688;2024-02-21T04:27:50;8.40;99.90
28171;DHT22;15458;53.346;-1.688;2024-02-21T04:30:16;8.40;99.90
28171;DHT22;15458;53.346;-1.688;2024-02-21T04:32:41;8.40;99.90
28171;DHT22;15458;53.346;-1.688;2024-02-21T04:35:08;8.40;99.90
28171;DHT22;15458;53.346;-1.688;2024-02-21T04:37:34;8.40;99.90
28171;DHT22;15458;53.346;-1.688;2024-02-21T04:40:00;8.40;99.90
28171;DHT22;15458;53.346;-1.688;2024-02-21T04:42:26;8.40;99.90
28171;DHT22;15458;53.346;-1.688;2024-02-21T04:44:51;8.40;99.90
28171;DHT22;15458;53.346;-1.688;2024-02-21T04:47:17;8.40;99.90
28171;DHT22;15458;53.346;-1.688;2024-02-21T04:49:44;8.40;99.90
28171;DHT22;15458;53.346;-1.688;2024-02-21T04:52:09;8.40;99.90
28171;DHT22;15458;53.346;-1.688;2024-02-21T04:54:35;8.40;99.90
28171;DHT22;15458;53.346;-1.688;2024-02-21T04:57:01;8.40;99.90
28171;DHT22;15458;53.346;-1.688;2024-02-21T04:59:27;8.40;99.90
28171;DHT22;15458;53.346;-1.688;2024-02-21T05:01:52;8.40;99.90
28171;DHT22;15458;53.346;-1.688;2024-02-21T05:04:18;8.40;99.90
28171;DHT22;15458;53.346;-1.688;2024-02-21T05:06:44;8.40;99.90
28171;DHT22;15458;53.346;-1.688;2024-02-21T05:09:10;8.40;99.90
28171;DHT22;15458;53.346;-1.688;2024-02-21T05:11:36;8.40;99.90
28171;DHT22;15458;53.346;-1.688;2024-02-21T05:14:03;8.40;99.90
28171;DHT22;15458;53.346;-1.688;2024-02-21T05:16:33;8.40;99.90
28171;DHT22;15458;53.346;-1.688;2024-02-21T05:19:00;8.40;99.90
28171;DHT22;15458;53.346;-1.688;2024-02-21T05:21:26;8.40;99.90
28171;DHT22;15458;53.346;-1.688;2024-02-21T05:23:53;8.40;99.90
28171;DHT22;15458;53.346;-1.688;2024-02-21T05:26:24;8.40;99.90
28171;DHT22;15458;53.346;-1.688;2024-02-21T05:28:50;8.40;99.90
28171;DHT22;15458;53.346;-1.688;2024-02-21T05:31:19;8.40;99.90
28171;DHT22;15458;53.346;-1.688;2024-02-21T05:33:46;8.40;99.90
28171;DHT22;15458;53.346;-1.688;2024-02-21T05:36:12;8.40;99.90
28171;DHT22;15458;53.346;-1.688;2024-02-21T05:38:38;8.50;99.90
28171;DHT22;15458;53.346;-1.688;2024-02-21T05:41:05;8.50;99.90
28171;DHT22;15458;53.346;-1.688;2024-02-21T05:43:30;8.50;99.90
28171;DHT22;15458;53.346;-1.688;2024-02-21T05:45:56;8.40;99.90
28171;DHT22;15458;53.346;-1.688;2024-02-21T05:48:23;8.40;99.90
28171;DHT22;15458;53.346;-1.688;2024-02-21T05:50:49;8.50;99.90
28171;DHT22;15458;53.346;-1.688;2024-02-21T05:53:15;8.40;99.90
28171;DHT22;15458;53.346;-1.688;2024-02-21T05:55:41;8.40;99.90
28171;DHT22;15458;53.346;-1.688;2024-02-21T05:58:07;8.40;99.90
28171;DHT22;15458;53.346;-1.688;2024-02-21T06:00:33;8.40;99.90
28171;DHT22;15458;53.346;-1.688;2024-02-21T06:02:59;8.40;99.90
28171;DHT22;15458;53.346;-1.688;2024-02-21T06:05:25;8.40;99.90
28171;DHT22;15458;53.346;-1.688;2024-02-21T06:07:50;8.40;99.90
28171;DHT22;15458;53.346;-1.688;2024-02-21T06:10:16;8.40;99.90
28171;DHT22;15458;53.346;-1.688;2024-02-21T06:12:42;8.40;99.90
28171;DHT22;15458;53.346;-1.688;2024-02-21T06:15:08;8.40;99.90
28171;DHT22;15458;53.346;-1.688;2024-02-21T06:17:34;8.40;99.90
28171;DHT22;15458;53.346;-1.688;2024-02-21T06:19:59;8.40;99.90
28171;DHT22;15458;53.346;-1.688;2024-02-21T06:22:25;8.40;99.90
28171;DHT22;15458;53.346;-1.688;2024-02-21T06:24:51;8.40;99.90
28171;DHT22;15458;53.346;-1.688;2024-02-21T06:27:16;8.40;99.90
28171;DHT22;15458;53.346;-1.688;2024-02-21T06:29:42;8.30;99.90
28171;DHT22;15458;53.346;-1.688;2024-02-21T06:32:08;8.30;99.90
28171;DHT22;15458;53.346;-1.688;2024-02-21T06:34:34;8.30;99.90
28171;DHT22;15458;53.346;-1.688;2024-02-21T06:37:00;8.30;99.90
28171;DHT22;15458;53.346;-1.688;2024-02-21T06:39:25;8.20;99.90
28171;DHT22;15458;53.346;-1.688;2024-02-21T06:41:51;8.20;99.90
28171;DHT22;15458;53.346;-1.688;2024-02-21T06:44:19;8.20;99.90
28171;DHT22;15458;53.346;-1.688;2024-02-21T06:46:45;8.20;99.90
28171;DHT22;15458;53.346;-1.688;2024-02-21T06:49:11;8.10;99.90
28171;DHT22;15458;53.346;-1.688;2024-02-21T06:51:43;8.10;99.90
28171;DHT22;15458;53.346;-1.688;2024-02-21T06:54:09;8.10;99.90
28171;DHT22;15458;53.346;-1.688;2024-02-21T06:56:40;8.00;99.90
28171;DHT22;15458;53.346;-1.688;2024-02-21T06:59:06;8.00;99.90
28171;DHT22;15458;53.346;-1.688;2024-02-21T07:01:32;8.00;99.90
28171;DHT22;15458;53.346;-1.688;2024-02-21T07:03:58;7.90;99.90
28171;DHT22;15458;53.346;-1.688;2024-02-21T07:06:24;7.90;99.90
28171;DHT22;15458;53.346;-1.688;2024-02-21T07:08:50;7.80;99.90
28171;DHT22;15458;53.346;-1.688;2024-02-21T07:11:15;7.80;99.90
28171;DHT22;15458;53.346;-1.688;2024-02-21T07:13:41;7.80;99.90
28171;DHT22;15458;53.346;-1.688;2024-02-21T07:16:07;7.70;99.90
28171;DHT22;15458;53.346;-1.688;2024-02-21T07:18:33;7.70;99.90
28171;DHT22;15458;53.346;-1.688;2024-02-21T07:20:59;7.60;99.90
28171;DHT22;15458;53.346;-1.688;2024-02-21T07:23:25;7.60;99.90
28171;DHT22;15458;53.346;-1.688;2024-02-21T07:25:51;7.60;99.90
28171;DHT22;15458;53.346;-1.688;2024-02-21T07:28:17;7.60;99.90
28171;DHT22;15458;53.346;-1.688;2024-02-21T07:30:43;7.60;99.90
28171;DHT22;15458;53.346;-1.688;2024-02-21T07:33:09;7.60;99.90
28171;DHT22;15458;53.346;-1.688;2024-02-21T07:35:35;7.60;99.90
28171;DHT22;15458;53.346;-1.688;2024-02-21T07:38:04;7.60;99.90
28171;DHT22;15458;53.346;-1.688;2024-02-21T07:40:30;7.60;99.90
28171;DHT22;15458;53.346;-1.688;2024-02-21T07:42:56;7.60;99.90
28171;DHT22;15458;53.346;-1.688;2024-02-21T07:45:22;7.50;99.90
28171;DHT22;15458;53.346;-1.688;2024-02-21T07:47:50;7.50;99.90
28171;DHT22;15458;53.346;-1.688;2024-02-21T07:50:16;7.50;99.90
28171;DHT22;15458;53.346;-1.688;2024-02-21T07:52:42;7.50;99.90
28171;DHT22;15458;53.346;-1.688;2024-02-21T07:55:08;7.50;99.90
28171;DHT22;15458;53.346;-1.688;2024-02-21T07:57:36;7.50;99.90
28171;DHT22;15458;53.346;-1.688;2024-02-21T08:00:02;7.50;99.90
28171;DHT22;15458;53.346;-1.688;2024-02-21T08:02:29;7.50;99.90
28171;DHT22;15458;53.346;-1.688;2024-02-21T08:04:55;7.50;99.90
28171;DHT22;15458;53.346;-1.688;2024-02-21T08:07:21;7.50;99.90
28171;DHT22;15458;53.346;-1.688;2024-02-21T08:09:48;7.60;99.90
28171;DHT22;15458;53.346;-1.688;2024-02-21T08:12:13;7.50;99.90
28171;DHT22;15458;53.346;-1.688;2024-02-21T08:14:39;7.60;99.90
28171;DHT22;15458;53.346;-1.688;2024-02-21T08:17:05;7.60;99.90
28171;DHT22;15458;53.346;-1.688;2024-02-21T08:19:30;7.50;99.90
28171;DHT22;15458;53.346;-1.688;2024-02-21T08:21:56;7.60;99.90
28171;DHT22;15458;53.346;-1.688;2024-02-21T08:24:22;7.60;99.90
28171;DHT22;15458;53.346;-1.688;2024-02-21T08:26:49;7.60;99.90
28171;DHT22;15458;53.346;-1.688;2024-02-21T08:29:14;7.60;99.90
28171;DHT22;15458;53.346;-1.688;2024-02-21T08:31:40;7.60;99.90
28171;DHT22;15458;53.346;-1.688;2024-02-21T08:34:06;7.60;99.90
28171;DHT22;15458;53.346;-1.688;2024-02-21T08:36:33;7.70;99.90
28171;DHT22;15458;53.346;-1.688;2024-02-21T08:38:59;7.70;99.90
28171;DHT22;15458;53.346;-1.688;2024-02-21T08:41:26;7.70;99.90
28171;DHT22;15458;53.346;-1.688;2024-02-21T08:43:53;7.70;99.90
28171;DHT22;15458;53.346;-1.688;2024-02-21T08:46:23;7.70;99.90
28171;DHT22;15458;53.346;-1.688;2024-02-21T08:48:50;7.70;99.90
28171;DHT22;15458;53.346;-1.688;2024-02-21T08:51:16;7.80;99.90
28171;DHT22;15458;53.346;-1.688;2024-02-21T08:53:43;7.80;99.90
28171;DHT22;15458;53.346;-1.688;2024-02-21T08:56:09;7.80;99.90
28171;DHT22;15458;53.346;-1.688;2024-02-21T08:58:36;7.80;99.90
28171;DHT22;15458;53.346;-1.688;2024-02-21T09:01:03;7.80;99.90
28171;DHT22;15458;53.346;-1.688;2024-02-21T09:03:31;7.80;99.90
28171;DHT22;15458;53.346;-1.688;2024-02-21T09:05:57;7.80;99.90
28171;DHT22;15458;53.346;-1.688;2024-02-21T09:08:23;7.90;99.90
28171;DHT22;15458;53.346;-1.688;2024-02-21T09:10:50;7.90;99.90
28171;DHT22;15458;53.346;-1.688;2024-02-21T09:13:15;7.90;99.90
28171;DHT22;15458;53.346;-1.688;2024-02-21T09:15:42;7.90;99.90
28171;DHT22;15458;53.346;-1.688;2024-02-21T09:18:08;8.00;99.90
28171;DHT22;15458;53.346;-1.688;2024-02-21T09:20:34;8.00;99.90
28171;DHT22;15458;53.346;-1.688;2024-02-21T09:22:59;8.00;99.90
28171;DHT22;15458;53.346;-1.688;2024-02-21T09:25:25;8.00;99.90
28171;DHT22;15458;53.346;-1.688;2024-02-21T09:27:58;8.00;99.90
28171;DHT22;15458;53.346;-1.688;2024-02-21T09:30:24;8.10;99.90
28171;DHT22;15458;53.346;-1.688;2024-02-21T09:32:51;8.10;99.90
28171;DHT22;15458;53.346;-1.688;2024-02-21T09:35:18;8.10;99.90
28171;DHT22;15458;53.346;-1.688;2024-02-21T09:37:44;8.10;99.90
28171;DHT22;15458;53.346;-1.688;2024-02-21T09:40:10;8.20;99.90
28171;DHT22;15458;53.346;-1.688;2024-02-21T09:42:40;8.20;99.90
28171;DHT22;15458;53.346;-1.688;2024-02-21T09:45:22;8.20;99.90
28171;DHT22;15458;53.346;-1.688;2024-02-21T09:50:53;8.20;99.90
28171;DHT22;15458;53.346;-1.688;2024-02-21T09:53:21;8.20;99.90
28171;DHT22;15458;53.346;-1.688;2024-02-21T09:55:48;8.30;99.90
28171;DHT22;15458;53.346;-1.688;2024-02-21T09:58:14;8.30;99.90
28171;DHT22;15458;53.346;-1.688;2024-02-21T10:00:40;8.30;99.90
28171;DHT22;15458;53.346;-1.688;2024-02-21T10:03:06;8.30;99.90
28171;DHT22;15458;53.346;-1.688;2024-02-21T10:05:35;8.30;99.90
28171;DHT22;15458;53.346;-1.688;2024-02-21T10:08:02;8.40;99.90
28171;DHT22;15458;53.346;-1.688;2024-02-21T10:10:28;8.40;99.90
28171;DHT22;15458;53.346;-1.688;2024-02-21T10:12:56;8.40;99.90
28171;DHT22;15458;53.346;-1.688;2024-02-21T10:15:24;8.50;99.90
28171;DHT22;15458;53.346;-1.688;2024-02-21T10:17:57;8.40;99.90
28171;DHT22;15458;53.346;-1.688;2024-02-21T10:20:23;8.50;99.90
28171;DHT22;15458;53.346;-1.688;2024-02-21T10:23:03;8.50;99.90
28171;DHT22;15458;53.346;-1.688;2024-02-21T10:25:36;8.50;99.90
28171;DHT22;15458;53.346;-1.688;2024-02-21T10:28:08;8.50;99.90
28171;DHT22;15458;53.346;-1.688;2024-02-21T10:30:37;8.50;99.90
28171;DHT22;15458;53.346;-1.688;2024-02-21T10:33:03;8.50;99.90
28171;DHT22;15458;53.346;-1.688;2024-02-21T10:35:32;8.60;99.90
28171;DHT22;15458;53.346;-1.688;2024-02-21T10:37:59;8.60;99.90
28171;DHT22;15458;53.346;-1.688;2024-02-21T10:40:29;8.60;99.90
28171;DHT22;15458;53.346;-1.688;2024-02-21T10:43:00;8.60;99.90
28171;DHT22;15458;53.346;-1.688;2024-02-21T10:45:35;8.60;99.90
28171;DHT22;15458;53.346;-1.688;2024-02-21T10:48:14;8.70;99.90
28171;DHT22;15458;53.346;-1.688;2024-02-21T10:54:02;8.70;99.90
28171;DHT22;15458;53.346;-1.688;2024-02-21T10:56:32;8.70;99.90
28171;DHT22;15458;53.346;-1.688;2024-02-21T10:59:04;8.70;99.90
28171;DHT22;15458;53.346;-1.688;2024-02-21T11:01:30;8.80;99.90
28171;DHT22;15458;53.346;-1.688;2024-02-21T11:03:59;8.80;99.90
28171;DHT22;15458;53.346;-1.688;2024-02-21T11:06:27;8.80;99.90
28171;DHT22;15458;53.346;-1.688;2024-02-21T11:09:07;8.80;99.90
28171;DHT22;15458;53.346;-1.688;2024-02-21T11:11:38;8.80;99.90
28171;DHT22;15458;53.346;-1.688;2024-02-21T11:14:07;8.80;99.90
28171;DHT22;15458;53.346;-1.688;2024-02-21T11:16:38;8.80;99.90
28171;DHT22;15458;53.346;-1.688;2024-02-21T11:19:08;8.80;99.90
28171;DHT22;15458;53.346;-1.688;2024-02-21T11:21:36;8.80;99.90
28171;DHT22;15458;53.346;-1.688;2024-02-21T11:24:06;8.90;99.90
28171;DHT22;15458;53.346;-1.688;2024-02-21T11:26:32;8.90;99.90
28171;DHT22;15458;53.346;-1.688;2024-02-21T11:29:01;8.90;99.90
28171;DHT22;15458;53.346;-1.688;2024-02-21T11:31:41;8.90;99.90
28171;DHT22;15458;53.346;-1.688;2024-02-21T11:34:16;9.00;99.90
28171;DHT22;15458;53.346;-1.688;2024-02-21T11:36:52;9.00;99.90
28171;DHT22;15458;53.346;-1.688;2024-02-21T11:39:21;9.00;99.90
28171;DHT22;15458;53.346;-1.688;2024-02-21T11:41:59;9.00;99.90
28171;DHT22;15458;53.346;-1.688;2024-02-21T11:44:25;9.10;99.90
28171;DHT22;15458;53.346;-1.688;2024-02-21T11:46:51;9.10;99.90
28171;DHT22;15458;53.346;-1.688;2024-02-21T11:49:16;9.10;99.90
28171;DHT22;15458;53.346;-1.688;2024-02-21T11:51:42;9.10;99.90
28171;DHT22;15458;53.346;-1.688;2024-02-21T11:54:08;9.20;99.90
28171;DHT22;15458;53.346;-1.688;2024-02-21T11:56:35;9.20;99.90
28171;DHT22;15458;53.346;-1.688;2024-02-21T11:59:00;9.20;99.90
28171;DHT22;15458;53.346;-1.688;2024-02-21T12:01:26;9.30;99.90
28171;DHT22;15458;53.346;-1.688;2024-02-21T12:03:52;9.30;99.90
28171;DHT22;15458;53.346;-1.688;2024-02-21T12:06:17;9.30;99.90
28171;DHT22;15458;53.346;-1.688;2024-02-21T12:08:46;9.30;99.90
28171;DHT22;15458;53.346;-1.688;2024-02-21T12:11:22;9.40;99.90
28171;DHT22;15458;53.346;-1.688;2024-02-21T12:14:01;9.40;99.90
28171;DHT22;15458;53.346;-1.688;2024-02-21T12:16:29;9.40;99.90
28171;DHT22;15458;53.346;-1.688;2024-02-21T12:18:56;9.50;99.90
28171;DHT22;15458;53.346;-1.688;2024-02-21T12:21:35;9.50;99.90
28171;DHT22;15458;53.346;-1.688;2024-02-21T12:24:22;9.50;99.90
28171;DHT22;15458;53.346;-1.688;2024-02-21T12:26:49;9.50;99.90
28171;DHT22;15458;53.346;-1.688;2024-02-21T12:29:14;9.50;99.90
28171;DHT22;15458;53.346;-1.688;2024-02-21T12:31:40;9.50;99.90
28171;DHT22;15458;53.346;-1.688;2024-02-21T12:34:06;9.50;99.90
28171;DHT22;15458;53.346;-1.688;2024-02-21T12:36:33;9.60;99.90
28171;DHT22;15458;53.346;-1.688;2024-02-21T12:38:59;9.60;99.90
28171;DHT22;15458;53.346;-1.688;2024-02-21T12:41:27;9.60;99.90
28171;DHT22;15458;53.346;-1.688;2024-02-21T12:43:53;9.60;99.90
28171;DHT22;15458;53.346;-1.688;2024-02-21T12:46:19;9.70;99.90
28171;DHT22;15458;53.346;-1.688;2024-02-21T12:48:45;9.70;99.90
28171;DHT22;15458;53.346;-1.688;2024-02-21T12:51:10;9.70;99.90
28171;DHT22;15458;53.346;-1.688;2024-02-21T12:53:38;9.70;99.90
28171;DHT22;15458;53.346;-1.688;2024-02-21T12:56:10;9.80;99.90
28171;DHT22;15458;53.346;-1.688;2024-02-21T12:58:38;9.80;99.90
28171;DHT22;15458;53.346;-1.688;2024-02-21T13:01:20;9.90;99.90
28171;DHT22;15458;53.346;-1.688;2024-02-21T13:04:02;10.00;99.90
28171;DHT22;15458;53.346;-1.688;2024-02-21T13:06:29;10.00;99.90
28171;DHT22;15458;53.346;-1.688;2024-02-21T13:09:07;10.10;99.90
28171;DHT22;15458;53.346;-1.688;2024-02-21T13:11:43;10.20;99.90
28171;DHT22;15458;53.346;-1.688;2024-02-21T13:14:11;10.30;99.90
28171;DHT22;15458;53.346;-1.688;2024-02-21T13:16:37;10.40;99.90
28171;DHT22;15458;53.346;-1.688;2024-02-21T13:19:08;10.50;99.90
28171;DHT22;15458;53.346;-1.688;2024-02-21T13:21:37;10.60;99.90
28171;DHT22;15458;53.346;-1.688;2024-02-21T13:24:03;10.70;99.90
28171;DHT22;15458;53.346;-1.688;2024-02-21T13:26:29;10.90;99.90
28171;DHT22;15458;53.346;-1.688;2024-02-21T13:28:55;10.90;99.90
28171;DHT22;15458;53.346;-1.688;2024-02-21T13:31:21;11.00;99.90
28171;DHT22;15458;53.346;-1.688;2024-02-21T13:33:46;11.00;99.90
28171;DHT22;15458;53.346;-1.688;2024-02-21T13:36:12;11.10;99.90
28171;DHT22;15458;53.346;-1.688;2024-02-21T13:38:38;11.20;99.90
28171;DHT22;15458;53.346;-1.688;2024-02-21T13:41:05;11.20;99.90
28171;DHT22;15458;53.346;-1.688;2024-02-21T13:43:32;11.20;99.90
28171;DHT22;15458;53.346;-1.688;2024-02-21T13:45:59;11.20;99.90
28171;DHT22;15458;53.346;-1.688;2024-02-21T13:48:25;11.20;99.90
28171;DHT22;15458;53.346;-1.688;2024-02-21T13:50:52;11.20;99.90
28171;DHT22;15458;53.346;-1.688;2024-02-21T13:53:18;11.20;99.90
28171;DHT22;15458;53.346;-1.688;2024-02-21T13:55:44;11.20;99.90
28171;DHT22;15458;53.346;-1.688;2024-02-21T13:58:10;11.10;99.90
28171;DHT22;15458;53.346;-1.688;2024-02-21T14:00:36;11.20;99.90
28171;DHT22;15458;53.346;-1.688;2024-02-21T14:03:02;11.20;99.90
28171;DHT22;15458;53.346;-1.688;2024-02-21T14:05:28;11.10;99.90
28171;DHT22;15458;53.346;-1.688;2024-02-21T14:07:55;11.20;99.90
28171;DHT22;15458;53.346;-1.688;2024-02-21T14:10:22;11.20;99.90
28171;DHT22;15458;53.346;-1.688;2024-02-21T14:12:48;11.20;99.90
28171;DHT22;15458;53.346;-1.688;2024-02-21T14:15:14;11.20;99.90
28171;DHT22;15458;53.346;-1.688;2024-02-21T14:17:40;11.20;99.90
28171;DHT22;15458;53.346;-1.688;2024-02-21T14:20:07;11.20;99.90
28171;DHT22;15458;53.346;-1.688;2024-02-21T14:22:33;11.20;99.90
28171;DHT22;15458;53.346;-1.688;2024-02-21T14:25:00;11.20;99.90
28171;DHT22;15458;53.346;-1.688;2024-02-21T14:27:26;11.20;99.90
28171;DHT22;15458;53.346;-1.688;2024-02-21T14:29:52;11.20;99.90
28171;DHT22;15458;53.346;-1.688;2024-02-21T14:32:18;11.20;99.90
28171;DHT22;15458;53.346;-1.688;2024-02-21T14:34:45;11.20;99.90
28171;DHT22;15458;53.346;-1.688;2024-02-21T14:37:11;11.20;99.90
28171;DHT22;15458;53.346;-1.688;2024-02-21T14:39:37;11.20;99.90
28171;DHT22;15458;53.346;-1.688;2024-02-21T14:42:03;11.30;99.90
28171;DHT22;15458;53.346;-1.688;2024-02-21T14:44:29;11.40;99.90
28171;DHT22;15458;53.346;-1.688;2024-02-21T14:46:54;11.40;99.90
28171;DHT22;15458;53.346;-1.688;2024-02-21T14:49:20;11.40;99.90
28171;DHT22;15458;53.346;-1.688;2024-02-21T14:51:46;11.40;99.90
28171;DHT22;15458;53.346;-1.688;2024-02-21T14:54:12;11.40;99.90
28171;DHT22;15458;53.346;-1.688;2024-02-21T14:56:37;11.30;99.90
28171;DHT22;15458;53.346;-1.688;2024-02-21T14:59:04;11.30;99.90
28171;DHT22;15458;53.346;-1.688;2024-02-21T15:01:35;11.30;99.90
28171;DHT22;15458;53.346;-1.688;2024-02-21T15:04:11;11.30;99.90
28171;DHT22;15458;53.346;-1.688;2024-02-21T15:06:52;11.30;99.90
28171;DHT22;15458;53.346;-1.688;2024-02-21T15:09:24;11.30;99.90
28171;DHT22;15458;53.346;-1.688;2024-02-21T15:11:52;11.30;99.90
28171;DHT22;15458;53.346;-1.688;2024-02-21T15:14:21;11.30;99.90
28171;DHT22;15458;53.346;-1.688;2024-02-21T15:16:47;11.30;99.90
28171;DHT22;15458;53.346;-1.688;2024-02-21T15:19:15;11.30;99.90
28171;DHT22;15458;53.346;-1.688;2024-02-21T15:21:41;11.40;99.90
28171;DHT22;15458;53.346;-1.688;2024-02-21T15:24:07;11.40;99.90
28171;DHT22;15458;53.346;-1.688;2024-02-21T15:26:33;11.50;99.90
28171;DHT22;15458;53.346;-1.688;2024-02-21T15:28:58;11.50;99.90
28171;DHT22;15458;53.346;-1.688;2024-02-21T15:31:24;11.50;99.90
28171;DHT22;15458;53.346;-1.688;2024-02-21T15:33:51;11.50;99.90
28171;DHT22;15458;53.346;-1.688;2024-02-21T15:36:17;11.60;99.90
28171;DHT22;15458;53.346;-1.688;2024-02-21T15:38:44;11.60;99.90